createdAt,value
2018-12-23T00:00:16.110Z,9.07
2018-12-23T00:02:42.860Z,9.08
2018-12-23T00:05:11.641Z,9.09
2018-12-23T00:07:36.365Z,9.08
2018-12-23T00:10:03.236Z,8.99
2018-12-23T00:12:29.996Z,8.98
2018-12-23T00:14:56.736Z,8.94
2018-12-23T00:17:23.475Z,8.92
2018-12-23T00:19:50.208Z,8.88
2018-12-23T00:22:17.002Z,8.78
2018-12-23T00:24:43.746Z,8.77
2018-12-23T00:27:10.504Z,8.71
2018-12-23T00:29:37.252Z,8.69
2018-12-23T00:32:04.006Z,8.69
2018-12-23T00:34:30.740Z,8.67
2018-12-23T00:36:57.512Z,8.66
2018-12-23T00:39:24.248Z,8.60
2018-12-23T00:41:51.013Z,8.56
2018-12-23T00:44:17.760Z,8.50
2018-12-23T00:46:44.524Z,8.50
2018-12-23T00:49:11.269Z,8.51
2018-12-23T00:51:38.023Z,8.53
2018-12-23T00:54:04.930Z,8.55
2018-12-23T00:56:31.547Z,8.47
2018-12-23T00:58:58.308Z,8.46
2018-12-23T01:01:25.061Z,8.50
2018-12-23T01:03:51.849Z,8.48
2018-12-23T01:06:18.609Z,8.56
2018-12-23T01:08:45.368Z,8.55
2018-12-23T01:11:12.112Z,8.58
2018-12-23T01:13:38.864Z,8.78
2018-12-23T01:16:05.617Z,8.76
2018-12-23T01:18:32.375Z,8.88
2018-12-23T01:20:59.108Z,9.35
2018-12-23T01:23:25.868Z,9.08
2018-12-23T01:25:52.678Z,9.28
2018-12-23T01:28:19.508Z,9.34
2018-12-23T01:30:46.260Z,9.75
2018-12-23T01:33:13.016Z,10.00
2018-12-23T01:35:39.800Z,9.47
2018-12-23T01:38:06.564Z,9.48
2018-12-23T01:40:33.372Z,9.43
2018-12-23T01:43:00.084Z,9.47
2018-12-23T01:45:26.820Z,9.22
2018-12-23T01:47:53.588Z,8.96
2018-12-23T01:50:20.340Z,8.83
2018-12-23T01:52:47.097Z,8.77
2018-12-23T01:55:13.837Z,8.87
2018-12-23T01:57:40.657Z,9.03
2018-12-23T02:00:07.499Z,9.18
2018-12-23T02:02:34.257Z,8.93
2018-12-23T02:05:01.017Z,8.99
2018-12-23T02:07:27.768Z,9.19
2018-12-23T02:09:54.709Z,8.99
2018-12-23T02:12:21.460Z,8.76
2018-12-23T02:14:48.220Z,8.99
2018-12-23T02:17:14.986Z,8.96
2018-12-23T02:19:41.750Z,9.03
2018-12-23T02:22:08.516Z,9.21
2018-12-23T02:24:35.276Z,9.19
2018-12-23T02:27:02.012Z,9.74
2018-12-23T02:29:28.765Z,9.52
2018-12-23T02:31:55.500Z,9.31
2018-12-23T02:34:22.285Z,9.41
2018-12-23T02:36:49.029Z,9.35
2018-12-23T02:39:15.794Z,9.21
2018-12-23T02:41:42.533Z,9.06
2018-12-23T02:44:09.285Z,9.50
2018-12-23T02:46:36.029Z,9.28
2018-12-23T02:49:02.819Z,9.09
2018-12-23T02:51:29.548Z,9.15
2018-12-23T02:53:56.317Z,9.05
2018-12-23T02:56:23.054Z,8.90
2018-12-23T02:58:49.813Z,8.73
2018-12-23T03:01:16.558Z,8.60
2018-12-23T03:03:43.489Z,8.53
2018-12-23T03:06:10.317Z,8.46
2018-12-23T03:08:37.076Z,8.38
2018-12-23T03:11:03.828Z,8.44
2018-12-23T03:13:30.696Z,8.54
2018-12-23T03:15:57.397Z,8.73
2018-12-23T03:18:24.177Z,8.68
2018-12-23T03:20:50.968Z,8.79
2018-12-23T03:23:17.732Z,8.57
2018-12-23T03:25:44.464Z,8.66
2018-12-23T03:28:11.215Z,8.78
2018-12-23T03:30:37.961Z,8.78
2018-12-23T03:33:04.728Z,9.26
2018-12-23T03:35:31.452Z,9.48
2018-12-23T03:37:58.222Z,9.08
2018-12-23T03:40:24.972Z,8.99
2018-12-23T03:42:51.713Z,8.69
2018-12-23T03:45:18.488Z,8.59
2018-12-23T03:47:45.245Z,8.54
2018-12-23T03:50:12.024Z,8.59
2018-12-23T03:52:38.766Z,8.46
2018-12-23T03:55:05.633Z,8.46
2018-12-23T03:57:32.460Z,8.42
2018-12-23T03:59:59.213Z,8.45
2018-12-23T04:02:25.958Z,8.59
2018-12-23T04:04:52.708Z,8.77
2018-12-23T04:07:19.460Z,8.93
2018-12-23T04:09:46.863Z,9.17
2018-12-23T04:12:13.607Z,8.89
2018-12-23T04:14:40.376Z,8.97
2018-12-23T04:17:07.109Z,8.88
2018-12-23T04:19:33.860Z,8.69
2018-12-23T04:22:00.608Z,8.70
2018-12-23T04:24:27.367Z,8.55
2018-12-23T04:26:54.122Z,8.43
2018-12-23T04:29:20.957Z,8.36
2018-12-23T04:31:47.688Z,8.40
2018-12-23T04:34:14.437Z,8.44
2018-12-23T04:36:41.185Z,8.40
2018-12-23T04:39:07.959Z,8.35
2018-12-23T04:41:34.697Z,8.33
2018-12-23T04:44:01.488Z,8.27
2018-12-23T04:46:28.268Z,8.30
2018-12-23T04:48:55.022Z,8.36
2018-12-23T04:51:21.763Z,8.27
2018-12-23T04:53:48.513Z,8.36
2018-12-23T04:56:15.263Z,8.30
2018-12-23T04:58:41.984Z,8.36
2018-12-23T05:01:08.748Z,8.34
2018-12-23T05:03:42.718Z,8.31
2018-12-23T05:06:02.260Z,8.34
2018-12-23T05:08:29.011Z,8.52
2018-12-23T05:10:55.732Z,8.44
2018-12-23T05:13:22.484Z,8.45
2018-12-23T05:15:49.388Z,8.45
2018-12-23T05:18:16.147Z,8.39
2018-12-23T05:20:42.888Z,8.43
2018-12-23T05:23:09.635Z,8.43
2018-12-23T05:25:36.392Z,8.38
2018-12-23T05:28:03.141Z,8.54
2018-12-23T05:30:29.879Z,8.47
2018-12-23T05:32:56.640Z,8.40
2018-12-23T05:35:23.412Z,8.45
2018-12-23T05:37:50.173Z,8.49
2018-12-23T05:40:16.917Z,8.44
2018-12-23T05:42:43.668Z,8.53
2018-12-23T05:45:10.408Z,8.45
2018-12-23T05:47:37.165Z,8.41
2018-12-23T05:50:03.912Z,8.39
2018-12-23T05:52:30.803Z,8.43
2018-12-23T05:54:57.456Z,8.31
2018-12-23T05:57:24.192Z,8.26
2018-12-23T05:59:50.944Z,8.23
2018-12-23T06:02:17.700Z,8.22
2018-12-23T06:04:44.453Z,8.18
2018-12-23T06:07:11.204Z,8.14
2018-12-23T06:09:37.960Z,8.12
2018-12-23T06:12:04.699Z,8.07
2018-12-23T06:14:31.460Z,8.15
2018-12-23T06:16:58.204Z,8.12
2018-12-23T06:19:24.964Z,8.08
2018-12-23T06:21:51.701Z,8.06
2018-12-23T06:24:18.460Z,8.06
2018-12-23T06:26:45.216Z,8.02
2018-12-23T06:29:11.976Z,8.01
2018-12-23T06:31:38.712Z,8.06
2018-12-23T06:34:05.543Z,8.06
2018-12-23T06:36:32.333Z,8.05
2018-12-23T06:38:59.089Z,8.08
2018-12-23T06:41:25.828Z,8.10
2018-12-23T06:43:52.588Z,8.12
2018-12-23T06:46:19.328Z,8.13
2018-12-23T06:48:46.080Z,8.10
2018-12-23T06:51:12.824Z,8.17
2018-12-23T06:53:39.609Z,8.15
2018-12-23T06:56:06.356Z,8.14
2018-12-23T06:58:33.104Z,8.21
2018-12-23T07:00:59.916Z,8.24
2018-12-23T07:03:26.695Z,8.43
2018-12-23T07:05:53.432Z,8.29
2018-12-23T07:08:20.192Z,8.28
2018-12-23T07:10:46.960Z,8.23
2018-12-23T07:13:13.729Z,8.26
2018-12-23T07:15:40.488Z,8.30
2018-12-23T07:18:07.244Z,8.44
2018-12-23T07:20:34.007Z,8.43
2018-12-23T07:23:00.749Z,8.40
2018-12-23T07:25:27.509Z,8.40
2018-12-23T07:27:54.286Z,8.39
2018-12-23T07:30:21.044Z,8.46
2018-12-23T07:32:47.784Z,8.50
2018-12-23T07:35:14.540Z,8.50
2018-12-23T07:37:41.276Z,8.44
2018-12-23T07:40:08.036Z,8.44
2018-12-23T07:42:34.788Z,8.44
2018-12-23T07:45:01.549Z,8.54
2018-12-23T07:47:28.288Z,8.48
2018-12-23T07:49:55.064Z,8.51
2018-12-23T07:52:21.816Z,8.55
2018-12-23T07:54:48.583Z,8.50
2018-12-23T07:57:15.340Z,8.53
2018-12-23T07:59:42.127Z,8.56
2018-12-23T08:02:08.869Z,8.58
2018-12-23T08:04:35.628Z,8.69
2018-12-23T08:07:02.361Z,8.88
2018-12-23T08:09:29.111Z,9.01
2018-12-23T08:11:55.857Z,8.94
2018-12-23T08:14:22.619Z,8.88
2018-12-23T08:16:49.377Z,8.91
2018-12-23T08:19:16.130Z,8.95
2018-12-23T08:21:42.865Z,9.05
2018-12-23T08:24:09.639Z,9.12
2018-12-23T08:26:36.368Z,8.88
2018-12-23T08:29:03.124Z,9.04
2018-12-23T08:31:29.888Z,9.13
2018-12-23T08:33:56.661Z,9.08
2018-12-23T08:36:23.400Z,9.09
2018-12-23T08:38:50.165Z,9.20
2018-12-23T08:41:16.908Z,9.11
2018-12-23T08:43:43.656Z,9.03
2018-12-23T08:46:10.389Z,9.06
2018-12-23T08:48:37.140Z,9.01
2018-12-23T08:51:03.888Z,8.99
2018-12-23T08:53:30.626Z,9.05
2018-12-23T08:55:57.480Z,9.02
2018-12-23T08:58:24.132Z,9.07
2018-12-23T09:00:50.919Z,9.17
2018-12-23T09:03:18.988Z,9.07
2018-12-23T09:05:44.508Z,9.18
2018-12-23T09:08:11.276Z,9.19
2018-12-23T09:10:38.174Z,9.18
2018-12-23T09:13:04.988Z,9.15
2018-12-23T09:15:31.952Z,9.11
2018-12-23T09:17:58.804Z,9.12
2018-12-23T09:20:25.640Z,9.12
2018-12-23T09:22:52.392Z,9.30
2018-12-23T09:25:19.173Z,9.35
2018-12-23T09:27:46.633Z,9.30
2018-12-23T09:30:12.692Z,9.33
2018-12-23T09:32:39.428Z,9.31
2018-12-23T09:35:06.289Z,9.30
2018-12-23T09:37:32.947Z,9.41
2018-12-23T09:39:59.713Z,9.31
2018-12-23T09:42:26.432Z,9.34
2018-12-23T09:44:53.212Z,9.36
2018-12-23T09:47:19.939Z,9.40
2018-12-23T09:49:46.733Z,9.44
2018-12-23T09:52:13.572Z,9.45
2018-12-23T09:54:40.416Z,9.39
2018-12-23T09:57:07.160Z,9.43
2018-12-23T09:59:33.981Z,9.49
2018-12-23T10:02:00.726Z,9.55
2018-12-23T10:04:27.573Z,9.48
2018-12-23T10:06:54.396Z,9.48
2018-12-23T10:09:21.161Z,9.50
2018-12-23T10:11:47.899Z,9.52
2018-12-23T10:14:14.661Z,9.56
2018-12-23T10:16:41.469Z,9.56
2018-12-23T10:19:08.244Z,9.69
2018-12-23T10:21:35.068Z,9.75
2018-12-23T10:24:01.803Z,9.82
2018-12-23T10:26:28.656Z,9.74
2018-12-23T10:28:55.481Z,9.69
2018-12-23T10:31:22.339Z,9.67
2018-12-23T10:33:49.180Z,9.72
2018-12-23T10:36:15.936Z,9.77
2018-12-23T10:38:42.732Z,9.74
2018-12-23T10:41:09.493Z,9.76
2018-12-23T10:43:36.250Z,9.78
2018-12-23T10:46:03.012Z,9.84
2018-12-23T10:48:29.760Z,9.90
2018-12-23T10:50:56.520Z,9.96
2018-12-23T10:53:23.265Z,10.07
2018-12-23T10:55:50.035Z,10.24
2018-12-23T10:58:16.879Z,10.06
2018-12-23T11:00:43.646Z,10.01
2018-12-23T11:03:10.390Z,9.93
2018-12-23T11:05:37.430Z,10.23
2018-12-23T11:08:04.216Z,10.01
2018-12-23T11:10:31.028Z,10.20
2018-12-23T11:12:57.768Z,9.84
2018-12-23T11:15:24.566Z,9.83
2018-12-23T11:17:51.296Z,9.83
2018-12-23T11:20:18.060Z,9.68
2018-12-23T11:22:44.793Z,9.58
2018-12-23T11:25:11.552Z,9.52
2018-12-23T11:27:38.361Z,9.47
2018-12-23T11:30:06.203Z,9.80
2018-12-23T11:32:33.076Z,9.70
2018-12-23T11:34:59.860Z,9.60
2018-12-23T11:37:26.604Z,9.74
2018-12-23T11:39:53.400Z,9.83
2018-12-23T11:42:20.187Z,9.99
2018-12-23T11:44:46.919Z,9.74
2018-12-23T11:47:13.657Z,9.80
2018-12-23T11:49:40.416Z,10.14
2018-12-23T11:52:07.188Z,9.99
2018-12-23T11:54:33.929Z,10.10
2018-12-23T11:57:00.684Z,9.95
2018-12-23T11:59:27.424Z,9.83
2018-12-23T12:01:54.189Z,9.67
2018-12-23T12:04:20.932Z,9.85
2018-12-23T12:06:47.684Z,9.98
2018-12-23T12:09:14.481Z,9.91
2018-12-23T12:11:41.237Z,10.05
2018-12-23T12:14:07.988Z,10.08
2018-12-23T12:16:34.796Z,10.16
2018-12-23T12:19:01.580Z,9.87
2018-12-23T12:21:28.400Z,9.94
2018-12-23T12:23:55.224Z,9.96
2018-12-23T12:26:22.084Z,10.16
2018-12-23T12:28:48.944Z,9.88
2018-12-23T12:31:15.796Z,10.39
2018-12-23T12:33:42.532Z,10.54
2018-12-23T12:36:09.306Z,10.17
2018-12-23T12:38:36.085Z,10.03
2018-12-23T12:41:02.934Z,9.93
2018-12-23T12:43:29.753Z,9.93
2018-12-23T12:46:00.525Z,10.18
2018-12-23T12:48:23.375Z,9.95
2018-12-23T12:50:50.409Z,10.24
2018-12-23T12:53:17.240Z,10.40
2018-12-23T12:55:44.028Z,10.40
2018-12-23T12:58:10.769Z,10.29
2018-12-23T13:00:37.576Z,10.35
2018-12-23T13:03:04.364Z,10.25
2018-12-23T13:05:31.150Z,10.46
2018-12-23T13:07:57.905Z,10.20
2018-12-23T13:10:24.717Z,10.34
2018-12-23T13:12:51.477Z,10.29
2018-12-23T13:15:18.227Z,10.34
2018-12-23T13:17:45.096Z,10.56
2018-12-23T13:20:11.913Z,10.38
2018-12-23T13:22:38.810Z,10.26
2018-12-23T13:25:05.512Z,10.24
2018-12-23T13:27:32.292Z,10.15
2018-12-23T13:29:59.069Z,10.25
2018-12-23T13:32:25.987Z,10.20
2018-12-23T13:34:52.689Z,10.49
2018-12-23T13:37:19.448Z,10.32
2018-12-23T13:39:46.800Z,10.20
2018-12-23T13:42:27.396Z,10.10
2018-12-23T13:45:20.310Z,10.19
2018-12-23T13:48:05.912Z,9.93
2018-12-23T13:51:04.509Z,9.72
2018-12-23T13:53:43.632Z,9.74
2018-12-23T13:56:24.616Z,9.68
2018-12-23T13:59:21.116Z,9.81
2018-12-23T14:01:59.496Z,9.91
2018-12-23T14:05:00.872Z,9.91
2018-12-23T14:07:53.031Z,10.39
2018-12-23T14:10:51.307Z,10.22
2018-12-23T14:13:18.128Z,9.95
2018-12-23T14:15:44.995Z,10.23
2018-12-23T14:18:11.724Z,9.97
2018-12-23T14:20:38.520Z,9.95
2018-12-23T14:23:05.273Z,9.93
2018-12-23T14:25:32.092Z,9.85
2018-12-23T14:27:58.844Z,9.74
2018-12-23T14:30:25.611Z,9.67
2018-12-23T14:32:52.400Z,9.98
2018-12-23T14:35:19.265Z,9.61
2018-12-23T14:37:46.012Z,9.95
2018-12-23T14:40:12.847Z,10.30
2018-12-23T14:42:39.583Z,9.86
2018-12-23T14:45:06.332Z,10.20
2018-12-23T14:47:33.069Z,10.01
2018-12-23T14:49:59.820Z,10.02
2018-12-23T14:52:26.640Z,9.91
2018-12-23T14:54:53.392Z,10.08
2018-12-23T14:57:20.216Z,9.78
2018-12-23T14:59:46.976Z,10.01
2018-12-23T15:02:13.912Z,9.88
2018-12-23T15:04:40.748Z,9.90
2018-12-23T15:07:07.928Z,9.74
2018-12-23T15:09:34.827Z,9.70
2018-12-23T15:12:01.686Z,10.15
2018-12-23T15:14:28.666Z,10.06
2018-12-23T15:16:55.561Z,9.94
2018-12-23T15:19:23.943Z,10.11
2018-12-23T15:21:49.832Z,10.05
2018-12-23T15:24:16.699Z,10.02
2018-12-23T15:26:43.457Z,9.92
2018-12-23T15:29:10.192Z,9.91
2018-12-23T15:31:36.954Z,10.09
2018-12-23T15:34:03.784Z,9.96
2018-12-23T15:36:30.544Z,9.95
2018-12-23T15:38:57.296Z,9.94
2018-12-23T15:41:24.048Z,9.93
2018-12-23T15:43:50.781Z,9.95
2018-12-23T15:46:17.557Z,9.72
2018-12-23T15:48:44.307Z,9.78
2018-12-23T15:51:11.045Z,9.80
2018-12-23T15:53:37.795Z,9.88
2018-12-23T15:56:04.565Z,9.92
2018-12-23T15:58:31.360Z,9.93
2018-12-23T16:00:58.120Z,9.94
2018-12-23T16:03:24.856Z,9.77
2018-12-23T16:05:51.685Z,9.88
2018-12-23T16:08:18.452Z,9.74
2018-12-23T16:10:45.204Z,9.85
2018-12-23T16:13:11.961Z,9.86
2018-12-23T16:15:38.712Z,9.86
2018-12-23T16:18:06.492Z,9.85
2018-12-23T16:20:33.480Z,9.93
2018-12-23T16:23:00.296Z,10.05
2018-12-23T16:25:27.035Z,10.07
2018-12-23T16:27:53.793Z,10.04
2018-12-23T16:30:22.633Z,10.10
2018-12-23T16:32:47.336Z,10.14
2018-12-23T16:35:14.154Z,10.18
2018-12-23T16:37:41.008Z,10.12
2018-12-23T16:40:10.120Z,10.12
2018-12-23T16:42:36.892Z,10.19
2018-12-23T16:45:03.860Z,10.19
2018-12-23T16:47:30.693Z,10.23
2018-12-23T16:49:57.447Z,10.32
2018-12-23T16:52:24.224Z,10.33
2018-12-23T16:54:50.972Z,10.36
2018-12-23T16:57:17.748Z,10.38
2018-12-23T16:59:44.499Z,10.39
2018-12-23T17:02:11.245Z,10.43
2018-12-23T17:04:37.979Z,10.49
2018-12-23T17:07:04.780Z,10.49
2018-12-23T17:09:31.592Z,10.55
2018-12-23T17:11:58.345Z,10.60
2018-12-23T17:14:25.099Z,10.63
2018-12-23T17:16:51.832Z,10.73
2018-12-23T17:19:18.573Z,10.72
2018-12-23T17:21:45.345Z,10.67
2018-12-23T17:24:12.088Z,10.77
2018-12-23T17:26:38.848Z,10.74
2018-12-23T17:29:05.593Z,10.74
2018-12-23T17:31:32.325Z,10.72
2018-12-23T17:33:59.081Z,10.78
2018-12-23T17:36:25.812Z,10.76
2018-12-23T17:38:52.590Z,10.82
2018-12-23T17:41:19.324Z,10.91
2018-12-23T17:43:46.068Z,10.91
2018-12-23T17:46:12.837Z,10.90
2018-12-23T17:48:39.620Z,10.95
2018-12-23T17:51:06.356Z,11.00
2018-12-23T17:53:33.121Z,11.05
2018-12-23T17:55:59.856Z,11.06
2018-12-23T17:58:26.617Z,11.27
2018-12-23T18:00:53.364Z,11.27
2018-12-23T18:03:20.121Z,11.20
2018-12-23T18:05:48.757Z,11.25
2018-12-23T18:08:15.517Z,11.30
2018-12-23T18:10:42.252Z,11.28
2018-12-23T18:13:09.036Z,11.36
2018-12-23T18:15:35.761Z,11.37
2018-12-23T18:18:02.525Z,11.41
2018-12-23T18:20:29.260Z,11.42
2018-12-23T18:22:56.012Z,11.45
2018-12-23T18:25:22.754Z,11.51
2018-12-23T18:27:49.514Z,11.63
2018-12-23T18:30:16.248Z,11.59
2018-12-23T18:32:43.012Z,11.54
2018-12-23T18:35:09.753Z,11.57
2018-12-23T18:37:36.541Z,11.54
2018-12-23T18:40:03.685Z,11.59
2018-12-23T18:42:30.445Z,11.68
2018-12-23T18:44:57.185Z,11.58
2018-12-23T18:47:23.927Z,11.67
2018-12-23T18:49:50.685Z,11.66
2018-12-23T18:52:17.430Z,11.58
2018-12-23T18:54:44.189Z,11.62
2018-12-23T18:57:12.682Z,11.68
2018-12-23T18:59:43.751Z,11.71
2018-12-23T19:02:16.008Z,11.67
2018-12-23T19:04:42.768Z,11.66
2018-12-23T19:07:09.512Z,11.67
2018-12-23T19:09:48.321Z,11.79
2018-12-23T19:12:26.585Z,11.89
2018-12-23T19:15:19.667Z,11.88
2018-12-23T19:17:59.856Z,12.03
2018-12-23T19:20:52.752Z,11.92
2018-12-23T19:23:50.881Z,11.93
2018-12-23T19:26:33.897Z,12.00
2018-12-23T19:29:27.937Z,12.08
2018-12-23T19:32:40.752Z,11.99
2018-12-23T19:35:38.796Z,11.98
2018-12-23T19:38:48.738Z,11.94
2018-12-23T19:41:42.280Z,11.89
2018-12-23T19:44:36.012Z,11.89
2018-12-23T19:47:16.086Z,12.03
2018-12-23T19:49:52.845Z,11.97
2018-12-23T19:52:59.725Z,11.96
2018-12-23T19:55:52.000Z,11.99
2018-12-23T19:58:46.684Z,12.03
2018-12-23T20:01:55.453Z,12.05
2018-12-23T20:04:37.553Z,12.03
2018-12-23T20:07:33.042Z,12.13
2018-12-23T20:10:11.533Z,12.15
2018-12-23T20:13:24.297Z,12.14
2018-12-23T20:16:14.680Z,12.18
2018-12-23T20:19:11.093Z,12.12
2018-12-23T20:21:54.941Z,12.13
2018-12-23T20:24:31.405Z,12.21
2018-12-23T20:27:17.510Z,12.16
2018-12-23T20:30:14.148Z,12.19
2018-12-23T20:32:55.256Z,12.07
2018-12-23T20:35:33.223Z,12.16
2018-12-23T20:38:32.204Z,12.15
2018-12-23T20:41:15.892Z,12.23
2018-12-23T20:44:06.853Z,12.11
2018-12-23T20:47:05.160Z,12.18
2018-12-23T20:49:52.349Z,12.29
2018-12-23T20:52:34.989Z,12.21
2018-12-23T20:55:38.717Z,12.28
2018-12-23T20:58:22.073Z,12.38
2018-12-23T21:01:12.924Z,12.22
2018-12-23T21:04:03.674Z,12.31
2018-12-23T21:06:46.525Z,12.38
2018-12-23T21:09:43.745Z,12.47
2018-12-23T21:12:34.276Z,12.42
2018-12-23T21:15:43.370Z,12.27
2018-12-23T21:18:40.972Z,12.38
2018-12-23T21:21:33.907Z,12.32
2018-12-23T21:24:41.808Z,12.32
2018-12-23T21:27:25.998Z,12.44
2018-12-23T21:30:03.405Z,12.42
2018-12-23T21:33:18.367Z,12.52
2018-12-23T21:36:15.776Z,12.54
2018-12-23T21:39:08.824Z,12.49
2018-12-23T21:41:47.913Z,12.58
2018-12-23T21:44:34.924Z,12.71
2018-12-23T21:47:21.403Z,12.64
2018-12-23T21:50:13.472Z,12.62
2018-12-23T21:53:16.021Z,12.59
2018-12-23T21:55:55.132Z,12.51
2018-12-23T21:58:46.260Z,12.36
2018-12-23T22:01:26.421Z,12.57
2018-12-23T22:04:22.577Z,12.49
2018-12-23T22:07:15.760Z,12.38
2018-12-23T22:10:02.050Z,12.41
2018-12-23T22:12:39.100Z,12.85
2018-12-23T22:15:05.864Z,12.72
2018-12-23T22:17:32.615Z,12.72
2018-12-23T22:19:59.367Z,12.57
2018-12-23T22:22:26.141Z,12.53
2018-12-23T22:24:52.925Z,12.60
2018-12-23T22:27:19.680Z,12.49
2018-12-23T22:29:46.413Z,12.55
2018-12-23T22:32:13.208Z,12.55
2018-12-23T22:34:39.944Z,12.58
2018-12-23T22:37:06.704Z,12.60
2018-12-23T22:39:33.452Z,12.81
2018-12-23T22:42:00.204Z,12.87
2018-12-23T22:44:26.949Z,12.92
2018-12-23T22:46:53.736Z,12.94
2018-12-23T22:49:20.549Z,12.87
2018-12-23T22:51:47.227Z,12.92
2018-12-23T22:54:13.966Z,12.87
2018-12-23T22:56:40.720Z,12.94
2018-12-23T22:59:07.546Z,12.91
2018-12-23T23:01:34.311Z,12.90
2018-12-23T23:04:01.048Z,12.87
2018-12-23T23:06:27.817Z,12.96
2018-12-23T23:08:54.562Z,12.87
2018-12-23T23:11:21.320Z,12.91
2018-12-23T23:13:48.064Z,12.96
2018-12-23T23:16:14.884Z,12.93
2018-12-23T23:18:41.621Z,13.01
2018-12-23T23:21:08.376Z,12.94
2018-12-23T23:23:35.140Z,12.98
2018-12-23T23:26:01.872Z,12.94
2018-12-23T23:28:28.624Z,12.92
2018-12-23T23:30:55.361Z,12.85
2018-12-23T23:33:24.084Z,12.93
2018-12-23T23:35:48.849Z,12.97
2018-12-23T23:38:15.607Z,13.02
2018-12-23T23:40:42.344Z,12.98
2018-12-23T23:43:09.101Z,13.05
2018-12-23T23:45:35.840Z,13.19
2018-12-23T23:48:02.596Z,13.12
2018-12-23T23:50:29.340Z,13.13
2018-12-23T23:52:56.096Z,13.06
2018-12-23T23:55:22.840Z,13.15
2018-12-23T23:57:49.596Z,13.14
